Terminal Aerodrome Forecast
Issued by NWS Sioux Falls, SD

Home | Current Version | Previous Version | Graphics & Text | Print | Product List | Glossary Off
Versions: 1 2 3 4 5 6 7 8 9 10 11 12 13 14 15 16 17 18 19

394
FTUS43 KFSD 041854 AAA
TAFHON
TAF AMD
KHON 041854Z 0419/0518 32010KT P6SM BKN018
     FM042000 31008KT P6SM SCT020
      TEMPO 0420/0421 BKN020
     FM042300 VRB03KT P6SM SKC
     FM050600 15007KT P6SM BKN120
     FM051200 17008KT P6SM OVC050
     FM051500 20008KT P6SM OVC030=

USA.gov is the U.S. government's official web portal to all federal, state and local government web resources and services.